Time;durP1;ratioP1;P1;durP2;ratioP2;P2;SDS_P1;SDS_P2;PMS_P1;PMS_P2;Temp;Humidity;BMP_temperature;BMP_pressure;BME280_temperature;BME280_humidity;BME280_pressure;Samples;Min_cycle;Max_cycle;Signal;HPM_P1;HPM_P2
2023/01/31 00:01:10;;;;;;;39.10;14.50;;;;;;;0.68;60.49;93411.75;5005723;28;20030;-76
2023/01/31 00:03:36;;;;;;;32.78;13.60;;;;;;;0.67;60.50;93401.50;5005477;28;20264;-76
2023/01/31 00:06:19;;;;;;;32.10;12.43;;;;;;;0.65;59.96;93411.47;5005491;28;20030;-76
2023/01/31 00:08:46;;;;;;;24.15;10.30;;;;;;;0.65;59.08;93421.97;5004643;28;20034;-76
2023/01/31 00:11:13;;;;;;;25.02;10.63;;;;;;;0.59;58.38;93414.09;5005272;28;20061;-75
2023/01/31 00:13:39;;;;;;;22.27;11.25;;;;;;;0.52;58.58;93408.31;5005235;28;20026;-75
2023/01/31 00:16:05;;;;;;;30.90;12.30;;;;;;;0.40;59.28;93403.31;5005208;28;20022;-76
2023/01/31 00:18:30;;;;;;;31.80;13.00;;;;;;;0.42;59.77;93412.78;5005285;28;20022;-75
2023/01/31 00:20:56;;;;;;;35.00;14.25;;;;;;;0.40;60.21;93411.19;5004832;28;20044;-75
2023/01/31 00:23:21;;;;;;;38.45;15.07;;;;;;;0.45;60.77;93415.66;5004823;28;20069;-75
2023/01/31 00:25:46;;;;;;;42.05;17.48;;;;;;;0.45;61.13;93413.03;5005067;28;20054;-74
2023/01/31 00:28:12;;;;;;;38.72;17.17;;;;;;;0.48;61.37;93423.00;5005031;28;20101;-75
2023/01/31 00:30:37;;;;;;;36.33;15.10;;;;;;;0.48;61.67;93423.00;5004810;28;20030;-75
2023/01/31 00:33:03;;;;;;;43.03;17.00;;;;;;;0.45;61.44;93420.91;5005054;28;20026;-76
2023/01/31 00:35:28;;;;;;;45.47;17.02;;;;;;;0.44;62.01;93421.94;5005055;28;20049;-75
2023/01/31 00:37:54;;;;;;;29.50;12.43;;;;;;;0.35;60.35;93429.53;5004685;28;20038;-74
2023/01/31 00:40:19;;;;;;;31.27;13.25;;;;;;;0.28;60.00;93425.59;5004688;28;20030;-74
2023/01/31 00:42:45;;;;;;;31.02;13.60;;;;;;;0.25;60.29;93424.28;5004768;28;20038;-74
2023/01/31 00:45:11;;;;;;;29.33;13.18;;;;;;;0.25;60.35;93424.28;5004735;28;20037;-75
2023/01/31 00:47:36;;;;;;;32.05;13.55;;;;;;;0.26;60.44;93417.97;5004662;28;20049;-75
2023/01/31 00:50:02;;;;;;;31.48;12.43;;;;;;;0.27;60.62;93431.91;5004648;28;20065;-75
2023/01/31 00:52:28;;;;;;;39.75;14.70;;;;;;;0.30;60.92;93418.25;5004429;28;20221;-75
2023/01/31 00:54:53;;;;;;;30.63;12.10;;;;;;;0.30;61.06;93421.66;5004139;28;20045;-76
2023/01/31 00:57:19;;;;;;;29.25;12.88;;;;;;;0.31;60.92;93412.75;5003268;28;20042;-76
2023/01/31 00:59:44;;;;;;;28.83;12.75;;;;;;;0.34;60.86;93408.81;5004406;28;20324;-76
2023/01/31 01:02:10;;;;;;;29.30;13.02;;;;;;;0.33;60.87;93404.63;5004407;28;20208;-75
2023/01/31 01:04:35;;;;;;;32.33;13.38;;;;;;;0.25;60.76;93413.78;5004153;28;20018;-75
2023/01/31 01:07:00;;;;;;;28.48;12.75;;;;;;;0.27;60.15;93408.31;5004277;28;20048;-75
2023/01/31 01:09:26;;;;;;;34.40;13.73;;;;;;;0.23;61.04;93415.13;5004012;28;20022;-75
2023/01/31 01:11:51;;;;;;;34.17;13.20;;;;;;;0.17;60.90;93422.94;5003947;28;20336;-75
2023/01/31 01:14:17;;;;;;;31.10;13.50;;;;;;;0.14;60.81;93433.97;5004077;28;20030;-76
2023/01/31 01:16:42;;;;;;;32.40;13.48;;;;;;;0.02;61.00;93440.47;5004028;28;20072;-75
2023/01/31 01:19:15;;;;;;;34.60;15.27;;;;;;;-0.16;61.81;93447.75;5003909;28;20213;-75
2023/01/31 01:21:43;;;;;;;31.55;12.60;;;;;;;-0.28;62.39;93432.25;5002798;28;20066;-75
2023/01/31 01:24:16;;;;;;;31.33;13.13;;;;;;;-0.30;62.36;93428.31;5002682;28;20048;-76
2023/01/31 01:26:41;;;;;;;20.98;8.48;;;;;;;-0.54;56.11;93423.47;5004003;28;20036;-76
2023/01/31 01:29:07;;;;;;;8.55;4.22;;;;;;;-0.44;47.90;93404.41;5002629;28;20045;-76
2023/01/31 01:31:33;;;;;;;11.40;3.15;;;;;;;-0.23;46.01;93411.28;5003890;28;20317;-75
2023/01/31 01:34:03;;;;;;;5.10;2.72;;;;;;;-0.08;45.48;93404.53;5003649;28;20093;-75
2023/01/31 01:36:32;;;;;;;5.85;3.20;;;;;;;0.09;44.21;93394.63;5003852;28;20324;-75
2023/01/31 01:38:58;;;;;;;6.25;2.65;;;;;;;0.18;42.48;93382.59;5003559;28;20054;-75
2023/01/31 01:41:23;;;;;;;5.78;2.83;;;;;;;0.30;43.10;93399.91;5003794;28;20036;-75
2023/01/31 01:43:51;;;;;;;5.55;3.00;;;;;;;0.35;42.35;93397.31;5003564;28;20025;-74
2023/01/31 01:46:36;;;;;;;9.02;2.88;;;;;;;0.42;43.01;93397.81;5002349;28;20030;-74
2023/01/31 01:49:27;;;;;;;6.07;2.63;;;;;;;0.44;42.14;93395.72;5003939;28;20022;-75
2023/01/31 01:51:56;;;;;;;8.55;3.33;;;;;;;0.45;42.81;93396.50;5003402;28;20037;-75
2023/01/31 01:54:28;;;;;;;8.48;2.95;;;;;;;0.47;43.68;93405.72;5003445;28;20324;-75
2023/01/31 01:56:59;;;;;;;6.93;2.92;;;;;;;0.47;43.27;93400.47;5003489;28;20056;-75
2023/01/31 01:59:30;;;;;;;7.93;3.10;;;;;;;0.50;43.15;93394.69;5003556;28;20084;-75
2023/01/31 02:01:56;;;;;;;6.70;2.85;;;;;;;0.46;42.89;93391.00;5003367;28;20018;-76
2023/01/31 02:04:25;;;;;;;6.07;2.70;;;;;;;0.45;41.38;93399.94;5003343;28;20209;-75
2023/01/31 02:06:51;;;;;;;7.43;2.95;;;;;;;0.45;42.83;93384.19;5003369;28;20018;-75
2023/01/31 02:09:41;;;;;;;7.80;3.00;;;;;;;0.37;42.70;93408.31;5003287;28;20332;-76
2023/01/31 02:12:08;;;;;;;6.45;2.90;;;;;;;0.30;43.63;93397.28;5003310;28;20041;-76
2023/01/31 02:14:34;;;;;;;7.13;3.22;;;;;;;0.26;43.89;93406.72;5003283;28;20269;-76
2023/01/31 02:17:00;;;;;;;8.98;3.63;;;;;;;0.25;41.90;93415.63;5003285;28;20122;-76
2023/01/31 02:19:28;;;;;;;7.88;3.63;;;;;;;0.21;43.14;93406.72;5002174;28;20101;-74
2023/01/31 02:22:02;;;;;;;8.88;3.45;;;;;;;0.09;43.53;93407.72;5003049;28;20354;-75
2023/01/31 02:25:02;;;;;;;7.45;2.97;;;;;;;0.08;42.66;93413.22;5002125;28;20022;-75
2023/01/31 02:27:33;;;;;;;7.43;3.03;;;;;;;0.10;42.63;93417.19;5003219;28;20026;-75
2023/01/31 02:30:29;;;;;;;9.15;3.22;;;;;;;0.09;41.77;93420.06;5003354;28;20022;-75
2023/01/31 02:33:13;;;;;;;7.88;3.45;;;;;;;0.05;41.63;93404.06;5004891;28;20022;-75
2023/01/31 02:35:54;;;;;;;8.88;3.03;;;;;;;0.10;42.22;93393.59;5005908;28;20030;-75
2023/01/31 02:38:43;;;;;;;5.75;2.63;;;;;;;0.17;41.97;93395.97;5006930;28;20022;-75
2023/01/31 02:41:17;;;;;;;9.80;3.08;;;;;;;0.23;42.54;93402.00;5007158;28;20029;-74
2023/01/31 02:47:32;;;;;;;10.80;3.85;;;;;;;0.18;44.67;93415.88;5006783;28;20041;-74
2023/01/31 02:50:23;;;;;;;9.27;3.90;;;;;;;0.17;45.83;93417.72;5006840;28;20068;-74
2023/01/31 02:52:58;;;;;;;10.80;3.33;;;;;;;0.16;46.71;93400.41;5006784;28;20408;-74
2023/01/31 02:58:48;;;;;;;9.68;3.65;;;;;;;0.21;47.53;93427.69;5006722;28;20351;-74
2023/01/31 03:01:20;;;;;;;7.63;3.17;;;;;;;0.23;47.96;93436.09;5006575;28;20313;-74
2023/01/31 03:03:45;;;;;;;;;;;;;;;0.25;48.22;93454.97;5006832;28;20252;-74
2023/01/31 03:06:21;;;;;;;9.23;3.65;;;;;;;0.17;50.34;93443.13;5006519;28;19905;-74
2023/01/31 03:08:52;;;;;;;9.40;3.67;;;;;;;0.13;50.60;93463.81;5005279;28;20026;-74
2023/01/31 03:11:21;;;;;;;10.35;3.95;;;;;;;0.08;51.67;93455.16;5006458;28;20208;-74
2023/01/31 03:14:21;;;;;;;8.48;3.88;;;;;;;0.02;52.66;93464.03;5006287;28;20038;-74
2023/01/31 03:20:08;;;;;;;9.45;3.33;;;;;;;-0.07;54.58;93484.72;5006274;28;20272;-74
2023/01/31 03:22:38;;;;;;;13.43;4.05;;;;;;;-0.11;56.11;93462.69;5005870;28;20054;-74
2023/01/31 03:25:08;;;;;;;10.65;4.60;;;;;;;-0.17;57.13;93471.56;5006053;28;20090;-74
2023/01/31 03:27:34;;;;;;;10.40;4.20;;;;;;;-0.24;58.22;93480.44;5006247;28;20309;-74
2023/01/31 03:30:12;;;;;;;7.47;3.08;;;;;;;-0.30;58.80;93480.69;5006206;28;20019;-74
2023/01/31 03:32:50;;;;;;;11.73;4.03;;;;;;;-0.31;59.72;93472.03;5005969;28;20029;-74
2023/01/31 03:35:18;;;;;;;7.90;3.13;;;;;;;-0.41;60.25;93493.72;5005924;28;20031;-75
2023/01/31 03:37:54;;;;;;;11.60;4.20;;;;;;;-0.42;60.67;93494.75;5005727;28;20026;-75
2023/01/31 03:40:23;;;;;;;10.85;4.40;;;;;;;-0.43;61.19;93508.91;5005939;28;20037;-75
2023/01/31 03:43:30;;;;;;;12.63;5.03;;;;;;;-0.42;61.56;93512.31;5005811;28;20026;-75
2023/01/31 03:46:05;;;;;;;10.38;4.18;;;;;;;-0.49;62.28;93519.56;4994348;28;20042;-72
2023/01/31 03:48:35;;;;;;;10.85;4.18;;;;;;;-0.49;62.59;93522.19;5005800;28;20366;-75
2023/01/31 03:51:06;;;;;;;8.65;4.25;;;;;;;-0.54;63.00;93525.56;5005757;28;20053;-75
2023/01/31 03:53:45;;;;;;;7.93;4.22;;;;;;;-0.55;63.51;93525.81;5005569;28;20030;-76
2023/01/31 03:56:16;;;;;;;16.35;4.88;;;;;;;-0.57;64.24;93513.00;5005301;28;20022;-75
2023/01/31 03:58:49;;;;;;;13.57;5.22;;;;;;;-0.58;64.88;93524.50;5005441;28;20030;-75
2023/01/31 04:01:17;;;;;;;9.18;4.65;;;;;;;-0.55;64.69;93531.06;5005457;28;20033;-76
2023/01/31 04:03:50;;;;;;;11.70;5.13;;;;;;;-0.62;64.83;93526.81;5005461;28;20018;-76
2023/01/31 04:06:16;;;;;;;13.68;5.45;;;;;;;-0.66;64.73;93515.28;5005325;28;20022;-76
2023/01/31 04:08:42;;;;;;;14.02;6.53;;;;;;;-0.66;65.28;93514.50;5005360;28;20331;-76
2023/01/31 04:11:11;;;;;;;11.93;5.07;;;;;;;-0.72;65.28;93537.22;5005199;28;20049;-76
2023/01/31 04:13:36;;;;;;;11.40;5.22;;;;;;;-0.79;65.60;93535.84;5004970;28;20019;-76
2023/01/31 04:16:02;;;;;;;12.45;4.80;;;;;;;-0.77;65.77;93542.44;5005379;28;20032;-76
2023/01/31 04:18:28;;;;;;;7.03;3.75;;;;;;;-0.83;66.30;93551.28;5005189;28;20040;-74
2023/01/31 04:20:53;;;;;;;10.57;4.18;;;;;;;-0.85;66.56;93546.28;5004983;28;20027;-74
2023/01/31 04:23:19;;;;;;;14.93;5.97;;;;;;;-0.87;66.63;93564.06;5004938;28;20042;-75
2023/01/31 04:25:45;;;;;;;11.07;4.88;;;;;;;-0.89;66.95;93557.50;5004991;28;20024;-76
2023/01/31 04:28:11;;;;;;;13.15;6.00;;;;;;;-0.93;67.53;93557.22;5004800;28;20065;-75
2023/01/31 04:30:36;;;;;;;13.70;5.70;;;;;;;-0.94;67.75;93565.31;5005008;28;20320;-75
2023/01/31 04:33:03;;;;;;;12.02;5.60;;;;;;;-0.96;68.09;93562.16;5005151;28;20201;-74
2023/01/31 04:35:28;;;;;;;13.60;6.00;;;;;;;-1.07;68.49;93577.75;5004719;28;20022;-73
2023/01/31 04:37:54;;;;;;;14.25;6.15;;;;;;;-1.06;68.72;93561.03;5004877;28;20190;-73
2023/01/31 04:40:19;;;;;;;12.80;6.13;;;;;;;-1.07;69.30;93556.81;5004650;28;20022;-73
2023/01/31 04:42:45;;;;;;;16.00;5.57;;;;;;;-1.09;69.37;93556.28;5004528;28;20094;-73
2023/01/31 04:45:11;;;;;;;15.88;5.22;;;;;;;-1.13;69.82;93557.03;5004713;28;20018;-73
2023/01/31 04:47:36;;;;;;;14.57;5.85;;;;;;;-1.13;69.71;93567.50;5004629;28;20325;-74
2023/01/31 04:50:03;;;;;;;13.75;5.65;;;;;;;-1.15;69.53;93567.72;5004551;28;20022;-74
2023/01/31 04:52:28;;;;;;;11.90;5.13;;;;;;;-1.20;69.67;93586.00;5004643;28;20030;-74
2023/01/31 04:54:54;;;;;;;12.05;5.30;;;;;;;-1.21;69.71;93571.34;5004183;28;20281;-75
2023/01/31 04:57:19;;;;;;;16.13;6.28;;;;;;;-1.22;69.78;93575.00;5004368;28;20026;-74
2023/01/31 04:59:45;;;;;;;16.73;6.43;;;;;;;-1.22;69.99;93575.00;5004339;28;20056;-74
2023/01/31 05:02:13;;;;;;;11.18;4.97;;;;;;;-1.18;69.60;93565.63;5004397;28;20077;-74
2023/01/31 05:04:39;;;;;;;11.52;5.30;;;;;;;-1.18;69.19;93556.97;5004251;28;20022;-75
2023/01/31 05:07:04;;;;;;;10.77;4.90;;;;;;;-1.16;69.10;93560.94;5004202;28;20130;-76
2023/01/31 05:09:30;;;;;;;12.50;4.53;;;;;;;-1.19;68.84;93579.72;5004348;28;20026;-76
2023/01/31 05:11:55;;;;;;;12.15;5.60;;;;;;;-1.14;69.61;93582.41;5004234;28;20256;-77
2023/01/31 05:14:20;;;;;;;13.35;5.38;;;;;;;-1.13;68.96;93578.75;5003907;28;20038;-76
2023/01/31 05:16:47;;;;;;;12.25;4.40;;;;;;;-1.13;69.06;93565.66;5003937;28;20033;-76
2023/01/31 05:19:14;;;;;;;13.35;5.60;;;;;;;-1.10;68.49;93583.50;5003942;28;20026;-76
2023/01/31 05:21:54;;;;;;;16.52;4.20;;;;;;;-1.06;67.76;93575.91;5003700;28;20041;-77
2023/01/31 05:24:21;;;;;;;9.30;3.97;;;;;;;-1.05;68.36;93591.38;5004000;28;20029;-76
2023/01/31 05:26:46;;;;;;;10.35;3.92;;;;;;;-1.01;68.01;93579.38;5003843;28;20036;-76
2023/01/31 05:29:12;;;;;;;11.23;4.43;;;;;;;-1.03;68.11;93588.50;5003631;28;20050;-74
2023/01/31 05:31:38;;;;;;;11.55;4.47;;;;;;;-0.99;67.99;93586.19;5003460;28;20022;-75
2023/01/31 05:34:04;;;;;;;10.88;4.43;;;;;;;-0.95;68.09;93593.31;5003477;28;20224;-75
2023/01/31 05:36:29;;;;;;;11.90;5.03;;;;;;;-0.97;67.86;93582.28;5003804;28;20022;-74
2023/01/31 05:38:54;;;;;;;10.95;4.55;;;;;;;-0.90;68.04;93598.56;5003495;28;20093;-74
2023/01/31 05:41:20;;;;;;;12.10;4.95;;;;;;;-0.91;68.17;93590.97;5003795;28;20057;-75
2023/01/31 05:43:45;;;;;;;12.02;4.80;;;;;;;-0.92;67.90;93607.72;5003541;28;20273;-75
2023/01/31 05:46:11;;;;;;;9.32;3.65;;;;;;;-0.91;67.91;93596.22;5003294;28;20026;-75
2023/01/31 05:48:36;;;;;;;12.35;5.00;;;;;;;-0.90;68.20;93593.34;5003544;28;20022;-74
2023/01/31 05:51:05;;;;;;;9.98;3.83;;;;;;;-0.93;68.43;93601.69;5003623;28;20206;-74
2023/01/31 05:53:30;;;;;;;9.25;4.45;;;;;;;-1.01;68.16;93592.47;5003691;28;20324;-74
2023/01/31 05:55:55;;;;;;;8.30;4.57;;;;;;;-0.93;68.32;93590.44;5003448;28;20029;-74
2023/01/31 05:58:21;;;;;;;10.68;4.32;;;;;;;-0.89;68.53;93599.38;5003486;28;20288;-74
2023/01/31 06:00:46;;;;;;;12.02;4.90;;;;;;;-0.92;68.72;93607.72;5003175;28;20014;-74
2023/01/31 06:03:12;;;;;;;8.57;3.95;;;;;;;-0.92;68.57;93611.09;5003505;28;20360;-75
2023/01/31 06:05:39;;;;;;;7.72;3.15;;;;;;;-0.93;68.72;93587.81;5003414;28;20025;-75
2023/01/31 06:08:05;;;;;;;9.13;4.38;;;;;;;-0.91;68.85;93628.41;5007686;28;20312;-75
2023/01/31 06:10:30;;;;;;;12.40;4.25;;;;;;;-0.88;68.97;93608.78;5010079;28;20018;-75
2023/01/31 06:12:55;;;;;;;8.93;4.43;;;;;;;-0.85;69.22;93600.47;5009795;28;20089;-74
2023/01/31 06:15:21;;;;;;;12.13;5.05;;;;;;;-0.84;69.25;93615.88;5009642;28;20027;-76
2023/01/31 06:17:46;;;;;;;10.48;3.75;;;;;;;-0.78;69.11;93616.72;5009820;28;20022;-75
2023/01/31 06:20:12;;;;;;;10.55;4.53;;;;;;;-0.74;69.36;93617.03;5009681;28;20343;-75
2023/01/31 06:22:37;;;;;;;13.80;4.85;;;;;;;-0.74;69.14;93609.97;5009618;28;20089;-76
2023/01/31 06:25:03;;;;;;;13.20;5.53;;;;;;;-0.71;69.47;93633.03;5009812;28;20042;-75
2023/01/31 06:27:31;;;;;;;12.85;5.57;;;;;;;-0.65;69.00;93626.03;5009919;28;20033;-76
2023/01/31 06:29:57;;;;;;;10.13;5.07;;;;;;;-0.62;69.06;93607.97;5009455;28;20027;-74
2023/01/31 06:32:22;;;;;;;13.25;5.22;;;;;;;-0.60;68.77;93618.19;5009677;28;20022;-74
2023/01/31 06:34:48;;;;;;;8.70;4.43;;;;;;;-0.53;68.55;93624.03;5008413;28;20081;-74
2023/01/31 06:37:13;;;;;;;11.45;4.93;;;;;;;-0.47;68.08;93611.75;5009658;28;20042;-74
2023/01/31 06:39:38;;;;;;;13.23;4.70;;;;;;;-0.48;68.07;93620.66;5009570;28;20037;-74
2023/01/31 06:42:04;;;;;;;13.93;6.20;;;;;;;-0.38;68.47;93620.75;5009545;28;20059;-74
2023/01/31 06:44:31;;;;;;;10.57;4.65;;;;;;;-0.27;68.05;93632.06;5009520;28;20022;-75
2023/01/31 06:46:58;;;;;;;12.00;4.88;;;;;;;-0.22;68.10;93629.50;5009372;28;20031;-76
2023/01/31 06:49:23;;;;;;;11.75;4.45;;;;;;;-0.27;68.07;93617.13;5009612;28;20042;-76
2023/01/31 06:51:49;;;;;;;11.88;5.45;;;;;;;-0.29;68.42;93624.47;5009378;28;20030;-76
2023/01/31 06:54:14;;;;;;;15.63;6.15;;;;;;;-0.33;68.57;93630.47;5009463;28;20040;-75
2023/01/31 06:56:39;;;;;;;15.30;5.82;;;;;;;-0.33;68.85;93635.69;5009438;28;20209;-75
2023/01/31 06:59:05;;;;;;;15.48;5.80;;;;;;;-0.37;68.73;93632.78;5009378;28;20025;-75
2023/01/31 07:01:30;;;;;;;12.45;5.07;;;;;;;-0.36;68.35;93638.81;5009617;28;20248;-75
2023/01/31 07:03:56;;;;;;;11.48;5.20;;;;;;;-0.33;68.06;93639.09;5009567;28;20016;-75
2023/01/31 07:06:21;;;;;;;15.15;5.63;;;;;;;-0.24;68.27;93636.81;5009685;28;20056;-75
2023/01/31 07:08:47;;;;;;;8.52;4.10;;;;;;;-0.23;67.85;93636.56;5009590;28;20137;-74
2023/01/31 07:11:13;;;;;;;7.97;3.78;;;;;;;-0.23;67.53;93628.69;5009094;28;20026;-73
2023/01/31 07:13:38;;;;;;;11.55;4.45;;;;;;;-0.16;66.94;93632.94;5009417;28;20026;-74
2023/01/31 07:16:04;;;;;;;11.73;3.88;;;;;;;-0.13;66.82;93641.09;5009515;28;20382;-74
2023/01/31 07:18:29;;;;;;;9.18;4.00;;;;;;;-0.12;66.35;93628.75;5008474;28;20038;-74
2023/01/31 07:20:55;;;;;;;11.40;4.97;;;;;;;-0.04;66.74;93636.97;5006099;28;20024;-74
2023/01/31 07:23:20;;;;;;;14.85;4.97;;;;;;;-0.03;66.94;93648.22;5005844;28;20133;-74
2023/01/31 07:25:45;;;;;;;16.52;4.95;;;;;;;-0.09;67.42;93641.38;5006156;28;20358;-74
2023/01/31 07:28:11;;;;;;;7.88;4.30;;;;;;;-0.13;67.79;93642.91;5005845;28;20064;-74
2023/01/31 07:30:36;;;;;;;9.88;4.25;;;;;;;-0.12;67.88;93649.72;5005896;28;20248;-74
2023/01/31 07:33:02;;;;;;;8.85;3.63;;;;;;;-0.13;68.43;93650.78;5006069;28;20126;-75
2023/01/31 07:35:28;;;;;;;11.38;5.40;;;;;;;-0.13;68.35;93635.06;5005738;28;20053;-73
2023/01/31 07:37:53;;;;;;;11.63;5.10;;;;;;;-0.17;68.63;93640.00;5005915;28;20018;-76
2023/01/31 07:40:19;;;;;;;9.75;4.88;;;;;;;-0.18;68.86;93641.06;5005806;28;20029;-76
2023/01/31 07:42:45;;;;;;;10.45;4.57;;;;;;;-0.22;69.04;93642.59;5005972;28;20037;-76
2023/01/31 07:45:11;;;;;;;12.27;4.13;;;;;;;-0.15;69.17;93647.63;5005801;28;20014;-76
2023/01/31 07:47:37;;;;;;;11.95;4.72;;;;;;;-0.11;69.12;93651.31;5005600;28;20018;-75
2023/01/31 07:50:03;;;;;;;10.88;4.57;;;;;;;-0.12;68.74;93661.00;5004666;28;20068;-73
2023/01/31 07:52:29;;;;;;;12.38;4.95;;;;;;;-0.07;68.69;93644.53;5005797;28;20026;-73
2023/01/31 07:54:55;;;;;;;13.73;4.53;;;;;;;-0.13;69.32;93661.25;5005430;28;20029;-73
2023/01/31 07:57:20;;;;;;;12.98;4.82;;;;;;;-0.19;70.28;93659.63;5005651;28;20030;-73
2023/01/31 07:59:45;;;;;;;10.25;5.05;;;;;;;-0.21;70.62;93650.19;5004363;28;20096;-74
2023/01/31 08:04:56;;;;;;;14.98;5.78;;;;;;;-0.19;70.72;93629.00;5005504;28;20052;-74
2023/01/31 08:07:22;;;;;;;9.40;3.35;;;;;;;-0.13;70.41;93643.69;5005426;28;20220;-74
2023/01/31 08:10:16;;;;;;;9.20;4.63;;;;;;;-0.17;69.92;93636.59;5005273;28;20319;-76
2023/01/31 08:12:42;;;;;;;8.18;3.72;;;;;;;-0.09;69.47;93650.00;5005192;28;20272;-73
2023/01/31 08:15:08;;;;;;;8.05;3.80;;;;;;;-0.08;68.60;93630.66;5005152;28;20041;-73
2023/01/31 08:17:33;;;;;;;12.40;4.10;;;;;;;0.04;69.13;93633.09;5004716;28;20063;-73
2023/01/31 08:20:05;;;;;;;10.10;4.63;;;;;;;0.16;68.50;93640.75;5005319;28;20110;-73
2023/01/31 08:22:30;;;;;;;7.75;3.83;;;;;;;0.17;68.18;93630.00;5005147;28;20233;-73
2023/01/31 08:24:56;;;;;;;8.65;3.75;;;;;;;0.25;67.79;93635.81;5004989;28;20018;-73
2023/01/31 08:27:21;;;;;;;9.82;4.03;;;;;;;0.25;67.69;93634.00;5004895;28;20101;-73
2023/01/31 08:29:47;;;;;;;7.20;3.75;;;;;;;0.25;67.45;93633.22;5004457;28;20034;-73
2023/01/31 08:32:12;;;;;;;6.07;3.47;;;;;;;0.37;67.52;93625.94;5004778;28;20018;-72
2023/01/31 08:34:37;;;;;;;11.15;4.15;;;;;;;0.44;67.06;93625.69;5004865;28;20026;-74
2023/01/31 08:37:03;;;;;;;9.68;4.80;;;;;;;0.48;67.08;93622.28;5004700;28;20073;-72
2023/01/31 08:39:28;;;;;;;7.72;3.78;;;;;;;0.48;66.70;93627.53;5004748;28;20053;-73
2023/01/31 08:41:54;;;;;;;6.43;3.67;;;;;;;0.57;66.50;93635.69;5004525;28;20029;-72
2023/01/31 08:44:19;;;;;;;7.93;3.53;;;;;;;0.54;66.73;93642.25;5004610;28;20045;-72
2023/01/31 08:46:44;;;;;;;10.07;3.50;;;;;;;0.56;66.88;93627.06;5004403;28;20053;-73
2023/01/31 08:49:10;;;;;;;8.52;3.88;;;;;;;0.59;67.00;93623.94;5004437;28;20026;-72
2023/01/31 08:51:35;;;;;;;9.40;3.85;;;;;;;0.55;67.13;93633.34;5004196;28;20030;-74
2023/01/31 08:54:01;;;;;;;8.18;3.83;;;;;;;0.68;67.88;93623.44;5004409;28;20030;-73
2023/01/31 08:56:27;;;;;;;10.75;4.03;;;;;;;0.78;67.03;93636.59;5004442;28;20339;-73
2023/01/31 08:58:53;;;;;;;8.50;3.25;;;;;;;0.62;66.88;93627.09;5004195;28;20558;-73
2023/01/31 09:01:20;;;;;;;8.63;3.53;;;;;;;0.57;67.23;93615.53;5004205;28;20072;-73
2023/01/31 09:03:47;;;;;;;5.43;2.72;;;;;;;0.66;66.02;93628.94;5003069;28;20010;-73
2023/01/31 09:06:18;;;;;;;5.07;2.58;;;;;;;0.68;65.28;93615.56;5004168;28;20260;-73
2023/01/31 09:08:43;;;;;;;7.78;3.15;;;;;;;0.76;65.12;93628.19;5004051;28;20029;-73
2023/01/31 09:11:09;;;;;;;6.78;3.38;;;;;;;0.85;64.19;93652.09;5002872;28;20014;-73
2023/01/31 09:13:35;;;;;;;5.40;2.92;;;;;;;0.90;63.99;93634.53;5003747;28;20205;-74
2023/01/31 09:16:06;;;;;;;7.78;4.28;;;;;;;1.04;64.08;93644.53;5003941;28;20022;-73
2023/01/31 09:18:34;;;;;;;7.13;3.13;;;;;;;1.11;63.40;93650.31;5004147;28;20100;-73
2023/01/31 09:21:16;;;;;;;8.60;3.55;;;;;;;1.08;63.19;93625.41;5003988;28;20073;-72
2023/01/31 09:23:43;;;;;;;7.47;3.13;;;;;;;1.15;63.30;93622.50;5002779;28;20297;-72
2023/01/31 09:26:13;;;;;;;5.97;3.10;;;;;;;1.16;63.24;93621.44;5003597;28;20030;-72
2023/01/31 09:28:43;;;;;;;4.22;2.50;;;;;;;1.19;63.24;93624.34;5003777;28;20029;-72
2023/01/31 09:31:15;;;;;;;7.15;3.25;;;;;;;1.24;63.87;93631.44;5003528;28;20036;-72
2023/01/31 09:33:42;;;;;;;7.70;3.25;;;;;;;1.29;62.75;93631.47;5002443;28;20037;-72
2023/01/31 09:36:09;;;;;;;6.55;3.28;;;;;;;1.27;62.64;93633.56;5003796;28;20221;-72
2023/01/31 09:38:35;;;;;;;8.90;3.70;;;;;;;1.34;62.84;93628.06;5002524;28;20029;-72
2023/01/31 09:41:05;;;;;;;6.35;2.95;;;;;;;1.34;62.60;93622.78;5003664;28;20339;-72
2023/01/31 09:43:41;;;;;;;5.97;2.63;;;;;;;1.39;62.71;93620.97;5001814;28;20206;-73
2023/01/31 09:46:15;;;;;;;5.05;2.83;;;;;;;1.27;62.57;93607.31;5003741;28;20025;-72
2023/01/31 09:48:44;;;;;;;9.35;3.90;;;;;;;1.20;62.59;93606.75;5003345;28;20026;-72
2023/01/31 09:51:11;;;;;;;9.40;4.03;;;;;;;1.34;62.88;93597.34;5003520;28;20056;-73
2023/01/31 09:53:40;;;;;;;5.18;2.30;;;;;;;1.46;63.65;93589.19;5003345;28;20085;-73
2023/01/31 09:56:05;;;;;;;3.88;2.45;;;;;;;1.60;62.12;93578.94;5003300;28;20022;-73
2023/01/31 09:58:33;;;;;;;4.22;2.13;;;;;;;1.55;61.33;93573.72;5003427;28;20033;-73
2023/01/31 10:01:26;;;;;;;4.90;2.67;;;;;;;1.58;61.08;93570.53;5003313;28;20038;-73
2023/01/31 10:03:54;;;;;;;4.03;2.00;;;;;;;1.55;59.98;93584.22;5003213;28;20296;-73
2023/01/31 10:06:26;;;;;;;4.70;2.10;;;;;;;1.56;59.06;93583.16;5003173;28;20316;-72
2023/01/31 10:09:03;;;;;;;6.15;2.65;;;;;;;1.70;60.09;93586.81;5002179;28;20034;-72
2023/01/31 10:11:38;;;;;;;6.05;2.83;;;;;;;1.72;59.96;93584.72;5003466;28;20030;-72
2023/01/31 10:14:10;;;;;;;6.20;2.50;;;;;;;1.57;60.56;93590.78;5001837;28;20351;-72
2023/01/31 10:16:44;;;;;;;5.47;2.83;;;;;;;1.42;60.80;93587.34;5002135;28;20022;-72
2023/01/31 10:19:26;;;;;;;4.75;2.65;;;;;;;1.39;60.71;93571.06;5003214;28;20025;-73
2023/01/31 10:22:06;;;;;;;4.53;2.70;;;;;;;1.43;61.64;93584.47;5002592;28;20058;-72
2023/01/31 10:24:39;;;;;;;7.38;2.97;;;;;;;1.58;61.11;93575.78;5003203;28;20018;-72
2023/01/31 10:27:14;;;;;;;5.50;1.98;;;;;;;1.74;59.98;93571.31;5003224;28;20031;-72
2023/01/31 10:29:43;;;;;;;6.43;2.72;;;;;;;1.88;59.66;93584.72;5002967;28;20026;-73
2023/01/31 10:32:30;;;;;;;4.45;2.50;;;;;;;1.74;59.12;93569.47;5003151;28;20037;-72
2023/01/31 10:35:02;;;;;;;4.63;2.35;;;;;;;1.85;59.61;93577.34;5003032;28;20205;-73
2023/01/31 10:37:39;;;;;;;;;;;;;;;1.80;58.17;93573.66;5003566;28;20026;-72
2023/01/31 10:40:12;;;;;;;3.75;1.88;;;;;;;1.62;58.97;93579.47;5002750;28;19928;-72
2023/01/31 10:42:38;;;;;;;;;;;;;;;1.62;59.66;93579.47;5003362;28;20033;-72
2023/01/31 10:45:12;;;;;;;3.22;1.63;;;;;;;1.53;58.88;93568.72;5002784;28;19906;-72
2023/01/31 10:47:46;;;;;;;6.43;1.98;;;;;;;1.54;59.40;93566.88;5002919;28;20030;-72
2023/01/31 10:50:18;;;;;;;4.40;1.80;;;;;;;1.50;58.32;93568.44;5002909;28;20026;-72
2023/01/31 10:53:16;;;;;;;3.75;2.42;;;;;;;1.59;58.32;93562.41;5002761;28;20102;-72
2023/01/31 10:56:11;;;;;;;8.55;3.35;;;;;;;1.70;60.25;93578.94;4998273;28;20113;-72
2023/01/31 10:58:37;;;;;;;10.63;3.05;;;;;;;1.71;60.30;93585.78;5006050;28;20280;-72
2023/01/31 11:01:10;;;;;;;6.28;2.80;;;;;;;1.70;60.92;93605.22;5006545;28;20324;-72
2023/01/31 11:03:36;;;;;;;6.00;2.78;;;;;;;1.64;61.37;93581.84;5006176;28;20018;-70
2023/01/31 11:06:01;;;;;;;4.05;2.47;;;;;;;1.50;61.51;93597.34;5006209;28;20320;-71
2023/01/31 11:08:33;;;;;;;6.88;3.13;;;;;;;1.47;62.33;93601.28;5005868;28;20014;-71
2023/01/31 11:11:03;;;;;;;;;;;;;;;1.33;62.77;93603.63;5006561;28;20029;-71
2023/01/31 11:13:29;;;;;;;5.43;2.58;;;;;;;1.14;63.91;93592.84;5005787;28;19913;-71
2023/01/31 11:15:54;;;;;;;4.97;2.60;;;;;;;1.08;64.32;93588.66;5005784;28;20030;-71
2023/01/31 11:18:34;;;;;;;5.32;2.75;;;;;;;1.10;64.58;93604.13;5005915;28;20026;-71
2023/01/31 11:21:01;;;;;;;9.32;3.42;;;;;;;1.20;64.59;93585.75;5006344;28;20034;-71
2023/01/31 11:23:31;;;;;;;7.03;3.38;;;;;;;1.32;65.29;93593.38;5005874;28;20046;-71
2023/01/31 11:25:58;;;;;;;7.88;3.05;;;;;;;1.24;64.67;93592.06;5005913;28;20030;-71
2023/01/31 11:28:35;;;;;;;6.00;3.03;;;;;;;1.15;65.58;93599.66;5005858;28;20141;-71
2023/01/31 11:31:06;;;;;;;6.65;3.25;;;;;;;1.04;66.85;93598.09;5004831;28;20045;-71
2023/01/31 11:33:54;;;;;;;9.18;2.92;;;;;;;1.03;66.54;93598.34;5005889;28;20024;-71
2023/01/31 11:36:21;;;;;;;5.80;3.08;;;;;;;1.04;66.98;93602.53;5005706;28;20029;-71
2023/01/31 11:38:48;;;;;;;8.98;3.28;;;;;;;1.03;66.89;93595.72;5005851;28;20033;-71
2023/01/31 11:41:32;;;;;;;6.18;3.13;;;;;;;0.89;67.68;93583.06;5005787;28;20116;-71
2023/01/31 11:44:15;;;;;;;8.25;3.60;;;;;;;0.79;67.80;93596.16;5005741;28;20223;-72
2023/01/31 11:46:44;;;;;;;6.88;3.00;;;;;;;0.72;68.58;93600.88;5005872;28;20029;-72
2023/01/31 11:49:13;;;;;;;6.55;3.45;;;;;;;0.71;68.98;93588.81;5005679;28;20045;-71
2023/01/31 11:51:39;;;;;;;6.15;3.00;;;;;;;0.69;69.56;93594.34;5005573;28;20029;-72
2023/01/31 11:54:05;;;;;;;10.27;4.13;;;;;;;0.69;69.86;93596.13;5005573;28;20030;-72
2023/01/31 11:56:36;;;;;;;7.70;4.03;;;;;;;0.62;70.00;93596.38;5005501;28;20049;-71